Time;durP1;ratioP1;P1;durP2;ratioP2;P2;SDS_P1;SDS_P2;PMS_P1;PMS_P2;Temp;Humidity;BMP_temperature;BMP_pressure;BME280_temperature;BME280_humidity;BME280_pressure;Samples;Min_cycle;Max_cycle;Signal;HPM_P1;HPM_P2
2021/11/14 00:02:03;;;;;;;;;9.50;9.00;;;;;13.96;67.18;101383.91;5099367;27;45289;-63
2021/11/14 00:04:29;;;;;;;;;9.00;9.00;;;;;13.96;67.14;101383.03;5100618;27;45310;-64
2021/11/14 00:06:54;;;;;;;;;8.75;8.25;;;;;13.93;67.18;101388.53;5102867;27;45394;-64
2021/11/14 00:09:20;;;;;;;;;8.25;7.25;;;;;13.93;67.02;101391.19;5091037;27;45371;-63
2021/11/14 00:11:45;;;;;;;;;9.25;8.00;;;;;13.92;66.82;101384.09;5100846;27;45962;-66
2021/11/14 00:14:11;;;;;;;;;9.50;9.50;;;;;13.93;67.10;101391.19;5101636;27;45170;-64
2021/11/14 00:16:37;;;;;;;;;8.25;8.00;;;;;13.89;67.05;101385.94;5102959;27;45265;-63
2021/11/14 00:19:04;;;;;;;;;9.75;9.00;;;;;13.92;67.35;101392.16;5102883;27;45537;-63
2021/11/14 00:21:30;;;;;;;;;8.00;6.00;;;;;13.85;67.13;101372.72;5102585;27;45382;-63
2021/11/14 00:23:56;;;;;;;;;8.50;8.50;;;;;13.93;67.08;101385.84;5102619;27;45446;-64
2021/11/14 00:26:22;;;;;;;;;9.00;9.00;;;;;13.96;67.24;101399.16;5102721;27;45385;-63
2021/11/14 00:28:48;;;;;;;;;9.75;8.00;;;;;13.94;66.92;101390.28;5102752;27;45208;-63
2021/11/14 00:31:17;;;;;;;;;9.50;9.00;;;;;13.96;67.21;101394.66;5101048;27;47863;-63
2021/11/14 00:33:44;;;;;;;;;9.50;9.00;;;;;13.95;67.42;101394.69;5102790;27;45262;-64
2021/11/14 00:36:15;;;;;;;;;11.25;10.75;;;;;13.92;67.21;101389.47;5102124;27;45374;-63
2021/11/14 00:38:41;;;;;;;;;11.00;8.75;;;;;13.87;67.01;101385.13;5102219;27;45305;-63
2021/11/14 00:41:07;;;;;;;;;10.25;8.50;;;;;13.89;67.16;101394.00;5101779;27;45435;-63
2021/11/14 00:43:34;;;;;;;;;10.00;9.00;;;;;13.88;67.36;101389.56;5102521;27;45399;-63
2021/11/14 00:46:03;;;;;;;;;11.00;10.50;;;;;13.88;67.27;101388.69;5102622;27;45346;-64
2021/11/14 00:48:28;;;;;;;;;9.75;8.00;;;;;13.92;67.34;101398.38;5101521;27;45409;-63
2021/11/14 00:50:54;;;;;;;;;9.00;9.00;;;;;13.89;67.13;101391.31;5089409;27;45296;-63
2021/11/14 00:53:19;;;;;;;;;8.00;8.00;;;;;13.88;67.50;101392.25;5102067;27;45315;-63
2021/11/14 00:55:46;;;;;;;;;11.25;10.00;;;;;13.88;67.37;101394.03;5102388;27;45119;-63
2021/11/14 00:58:11;;;;;;;;;7.50;6.50;;;;;13.80;67.36;101383.59;5102436;27;45279;-63
2021/11/14 01:00:38;;;;;;;;;10.25;9.50;;;;;13.81;67.25;101384.47;5102209;27;46324;-63
2021/11/14 01:03:07;;;;;;;;;7.25;7.25;;;;;13.83;67.59;101385.28;5100823;27;47976;-63
2021/11/14 01:05:34;;;;;;;;;7.50;5.00;;;;;13.84;67.42;101385.22;5102304;27;45360;-63
2021/11/14 01:08:00;;;;;;;;;11.50;11.00;;;;;13.84;67.44;101382.56;5101218;27;45689;-63
2021/11/14 01:10:29;;;;;;;;;11.00;9.50;;;;;13.84;67.45;101387.91;5088634;27;45307;-63
2021/11/14 01:12:56;;;;;;;;;7.75;7.75;;;;;13.86;67.38;101390.56;5101994;27;45348;-63
2021/11/14 01:15:22;;;;;;;;;10.00;9.25;;;;;13.88;67.24;101391.38;5102070;27;45495;-63
2021/11/14 01:17:49;;;;;;;;;10.75;9.50;;;;;13.88;67.36;101386.00;5101956;27;45297;-63
2021/11/14 01:20:18;;;;;;;;;8.75;7.75;;;;;13.88;67.23;101389.56;5101935;27;46208;-63
2021/11/14 01:22:44;;;;;;;;;8.50;8.00;;;;;13.93;67.29;101393.88;5101836;27;45460;-63
2021/11/14 01:25:12;;;;;;;;;9.00;7.00;;;;;13.90;67.20;101386.84;5101673;27;45387;-63
2021/11/14 01:27:38;;;;;;;;;9.50;9.25;;;;;13.92;67.45;101400.22;5100466;27;45257;-63
2021/11/14 01:30:07;;;;;;;;;8.25;8.25;;;;;13.91;67.33;101396.63;5101666;27;45332;-63
2021/11/14 01:32:32;;;;;;;;;9.00;8.25;;;;;13.93;67.40;101388.53;5101590;27;45494;-63
2021/11/14 01:34:58;;;;;;;;;10.00;10.00;;;;;13.90;67.54;101395.75;5100212;27;45513;-63
2021/11/14 01:37:23;;;;;;;;;8.50;8.00;;;;;13.90;67.25;101393.06;5097148;27;45526;-64
2021/11/14 01:39:49;;;;;;;;;10.00;9.00;;;;;13.87;67.39;101387.81;5101215;27;45369;-63
2021/11/14 01:42:14;;;;;;;;;11.75;9.00;;;;;13.88;67.58;101394.03;5100927;27;45358;-63
2021/11/14 01:44:39;;;;;;;;;10.25;9.75;;;;;13.84;67.61;101395.97;5101849;27;45821;-63
2021/11/14 01:47:05;;;;;;;;;14.75;11.00;;;;;13.83;67.75;101388.88;5101209;27;45299;-63
2021/11/14 01:49:30;;;;;;;;;15.75;11.75;;;;;13.84;67.71;101398.66;5096299;27;47031;-63
2021/11/14 01:51:56;;;;;;;;;12.00;11.25;;;;;13.82;67.62;101397.84;5097275;27;45297;-63
2021/11/14 01:54:22;;;;;;;;;9.25;7.75;;;;;13.83;67.54;101396.91;5101214;27;45481;-63
2021/11/14 01:56:48;;;;;;;;;8.25;8.25;;;;;13.83;67.93;101396.91;5101212;27;45349;-63
2021/11/14 01:59:15;;;;;;;;;8.75;7.50;;;;;13.87;67.84;101392.31;5101214;27;46450;-63
2021/11/14 02:01:41;;;;;;;;;8.25;8.00;;;;;13.84;67.49;101395.09;5101184;27;45212;-63
2021/11/14 02:04:07;;;;;;;;;9.50;9.50;;;;;13.86;67.57;101402.16;5101368;27;45939;-63
2021/11/14 02:06:35;;;;;;;;;8.00;7.50;;;;;13.87;67.76;101411.09;5100482;27;45322;-63
2021/11/14 02:09:04;;;;;;;;;10.50;9.50;;;;;13.87;67.52;101408.41;5091622;27;45421;-63
2021/11/14 02:11:30;;;;;;;;;10.25;9.25;;;;;13.84;67.60;101401.34;5096715;27;45474;-63
2021/11/14 02:13:56;;;;;;;;;10.50;10.00;;;;;13.86;67.58;101407.50;5101208;27;45263;-63
2021/11/14 02:16:25;;;;;;;;;10.75;9.25;;;;;13.84;67.72;101411.19;5100859;27;45318;-63
2021/11/14 02:18:51;;;;;;;;;8.25;7.00;;;;;13.85;67.59;101403.09;5100991;27;46611;-63
2021/11/14 02:21:17;;;;;;;;;11.50;10.00;;;;;13.89;67.55;101402.03;5100703;27;45308;-63
2021/11/14 02:23:43;;;;;;;;;11.00;11.00;;;;;13.89;67.65;101411.91;5100917;27;45181;-63
2021/11/14 02:26:09;;;;;;;;;8.25;7.75;;;;;13.89;67.63;101406.53;5100733;27;45165;-63
2021/11/14 02:28:35;;;;;;;;;9.00;6.75;;;;;13.89;67.35;101404.72;5100338;27;46013;-63
2021/11/14 02:31:00;;;;;;;;;11.00;9.25;;;;;13.88;67.49;101400.31;5100714;27;45485;-63
2021/11/14 02:33:27;;;;;;;;;8.75;8.75;;;;;13.90;67.41;101403.81;5101127;27;45201;-63
2021/11/14 02:35:58;;;;;;;;;8.50;7.00;;;;;13.88;67.44;101399.41;5095130;27;45304;-63
2021/11/14 02:38:24;;;;;;;;;8.00;7.75;;;;;13.86;67.44;101406.66;5100373;27;45300;-63
2021/11/14 02:40:51;;;;;;;;;8.75;8.75;;;;;13.82;67.88;101403.22;5100284;27;45450;-63
2021/11/14 02:43:18;;;;;;;;;9.00;8.00;;;;;13.83;67.78;101401.38;5100471;27;45372;-63
2021/11/14 02:45:44;;;;;;;;;9.00;8.50;;;;;13.77;67.87;101390.91;5100471;27;45337;-63
2021/11/14 02:48:11;;;;;;;;;6.00;4.75;;;;;13.79;68.41;101402.44;5100529;27;45430;-63
2021/11/14 02:50:38;;;;;;;;;12.25;8.00;;;;;13.77;67.89;101394.44;5099098;27;45426;-63
2021/11/14 02:53:05;;;;;;;;;8.50;7.50;;;;;13.77;68.35;101394.44;5100419;27;45221;-64
2021/11/14 02:55:31;;;;;;;;;8.00;7.25;;;;;13.80;68.03;101393.44;5098800;27;45955;-63
2021/11/14 02:57:56;;;;;;;;;8.75;7.00;;;;;13.76;68.20;101391.81;5100349;27;45690;-63
2021/11/14 03:00:26;;;;;;;;;7.25;7.25;;;;;13.77;68.40;101401.63;5100321;27;45520;-63
2021/11/14 03:02:53;;;;;;;;;6.00;6.00;;;;;13.76;68.38;101395.34;5100656;27;45309;-63
2021/11/14 03:05:20;;;;;;;;;9.25;9.25;;;;;13.77;68.78;101389.06;5100319;27;45248;-63
2021/11/14 03:07:46;;;;;;;;;10.75;8.00;;;;;13.75;68.60;101395.41;5099948;27;46288;-63
2021/11/14 03:10:14;;;;;;;;;8.00;7.00;;;;;13.76;68.62;101391.81;5085785;27;45597;-63
2021/11/14 03:12:39;;;;;;;;;9.50;8.75;;;;;13.76;68.66;101397.19;5100558;27;45329;-63
2021/11/14 03:15:06;;;;;;;;;7.00;6.50;;;;;13.77;68.47;101390.91;5099996;27;45429;-63
2021/11/14 03:17:32;;;;;;;;;9.75;8.75;;;;;13.76;68.73;101386.44;5100277;27;46097;-63
2021/11/14 03:19:57;;;;;;;;;9.00;6.00;;;;;13.78;68.52;101395.31;5098660;27;45421;-63
2021/11/14 03:22:23;;;;;;;;;8.00;7.00;;;;;13.78;68.78;101395.31;5100374;27;45147;-63
2021/11/14 03:24:52;;;;;;;;;9.75;8.00;;;;;13.80;68.54;101398.81;5099744;27;45332;-63
2021/11/14 03:27:23;;;;;;;;;5.50;5.50;;;;;13.79;68.21;101399.75;5099831;27;46107;-63
2021/11/14 03:29:48;;;;;;;;;9.75;9.50;;;;;13.79;68.45;101394.41;5099932;27;45516;-63
2021/11/14 03:32:14;;;;;;;;;7.00;6.25;;;;;13.77;68.40;101390.91;5100290;27;45461;-63
2021/11/14 03:34:40;;;;;;;;;9.00;9.00;;;;;13.80;68.46;101401.50;5100047;27;45213;-64
2021/11/14 03:37:18;;;;;;;;;6.75;5.75;;;;;13.75;68.74;101407.03;5093815;27;46036;-63
2021/11/14 03:39:47;;;;;;;;;11.00;8.00;;;;;13.76;68.60;101407.91;5089082;27;45237;-63
2021/11/14 03:42:12;;;;;;;;;8.00;6.25;;;;;13.76;68.59;101410.59;5103168;27;45313;-63
2021/11/14 03:44:40;;;;;;;;;9.75;7.50;;;;;13.74;68.83;101405.28;5103500;27;45469;-63
2021/11/14 03:47:06;;;;;;;;;7.75;7.75;;;;;13.75;68.38;101409.72;5103275;27;46046;-63
2021/11/14 03:49:32;;;;;;;;;7.00;7.00;;;;;13.76;68.47;101407.91;5102609;27;45502;-63
2021/11/14 03:51:57;;;;;;;;;13.75;7.25;;;;;13.74;68.60;101401.72;5103338;27;45403;-63
2021/11/14 03:54:23;;;;;;;;;7.25;7.00;;;;;13.75;68.49;101401.69;5103266;27;45233;-63
2021/11/14 03:56:49;;;;;;;;;6.00;6.00;;;;;13.73;68.57;101403.50;5103035;27;45309;-63
2021/11/14 03:59:14;;;;;;;;;7.25;7.25;;;;;13.76;68.55;101406.09;5103349;27;45257;-63
2021/11/14 04:01:40;;;;;;;;;6.00;6.00;;;;;13.74;68.56;101405.28;5103179;27;45445;-63
2021/11/14 04:04:06;;;;;;;;;7.00;6.25;;;;;13.78;68.44;101406.03;5103271;27;45494;-63
2021/11/14 04:06:31;;;;;;;;;6.00;5.75;;;;;13.80;68.29;101401.50;5102711;27;45798;-63
2021/11/14 04:08:58;;;;;;;;;9.25;7.50;;;;;13.79;68.52;101407.81;5094434;27;45180;-63
2021/11/14 04:11:24;;;;;;;;;9.00;6.00;;;;;13.79;68.31;101408.69;5096620;27;45294;-63
2021/11/14 04:13:49;;;;;;;;;5.00;5.00;;;;;13.80;68.28;101410.44;5102907;27;45713;-63
2021/11/14 04:16:15;;;;;;;;;8.50;6.25;;;;;13.81;68.62;101405.94;5102786;27;46043;-63
2021/11/14 04:18:40;;;;;;;;;7.50;6.75;;;;;13.80;68.41;101413.13;5102961;27;45222;-63
2021/11/14 04:21:07;;;;;;;;;9.25;6.25;;;;;13.79;68.71;101399.75;5102767;27;45417;-63
2021/11/14 04:23:33;;;;;;;;;6.75;6.25;;;;;13.80;68.48;101402.38;5102721;27;45625;-63
2021/11/14 04:25:58;;;;;;;;;9.00;8.00;;;;;13.80;68.70;101393.44;5102468;27;46385;-63
2021/11/14 04:28:24;;;;;;;;;6.25;6.00;;;;;13.81;68.32;101396.06;5101631;27;45335;-63
2021/11/14 04:30:50;;;;;;;;;5.00;5.00;;;;;13.78;68.44;101392.63;5102799;27;45449;-63
2021/11/14 04:33:17;;;;;;;;;9.75;7.25;;;;;13.77;68.46;101393.56;5102734;27;45331;-63
2021/11/14 04:35:43;;;;;;;;;7.00;5.50;;;;;13.73;68.50;101387.41;5097292;27;45310;-63
2021/11/14 04:38:10;;;;;;;;;7.00;5.50;;;;;13.75;68.15;101390.03;5102256;27;45219;-63
2021/11/14 04:40:37;;;;;;;;;6.25;6.25;;;;;13.75;68.38;101398.09;5102264;27;45358;-63
2021/11/14 04:43:04;;;;;;;;;7.00;6.00;;;;;13.76;68.67;101402.53;5102534;27;45564;-63
2021/11/14 04:45:31;;;;;;;;;6.25;6.25;;;;;13.76;68.34;101394.50;5102365;27;46260;-63
2021/11/14 04:47:56;;;;;;;;;7.25;7.25;;;;;13.75;68.29;101399.00;5102543;27;45499;-63
2021/11/14 04:50:23;;;;;;;;;7.50;7.50;;;;;13.73;68.25;101397.28;5088103;27;45140;-63
2021/11/14 04:52:51;;;;;;;;;8.75;7.25;;;;;13.74;68.56;101399.91;5102383;27;45291;-63
2021/11/14 04:55:17;;;;;;;;;7.00;7.00;;;;;13.73;68.52;101410.69;5101684;27;45700;-63
2021/11/14 04:57:43;;;;;;;;;8.00;7.00;;;;;13.70;68.47;101409.00;5102286;27;45387;-63
2021/11/14 05:00:12;;;;;;;;;10.50;7.00;;;;;13.69;68.63;101408.13;5102221;27;45305;-63
2021/11/14 05:02:38;;;;;;;;;8.00;7.00;;;;;13.70;68.72;101407.19;5102367;27;45392;-63
2021/11/14 05:05:06;;;;;;;;;7.75;7.75;;;;;13.68;68.69;101395.66;5101958;27;46209;-64
2021/11/14 05:07:32;;;;;;;;;7.50;7.00;;;;;13.71;68.62;101411.66;5101678;27;45541;-63
2021/11/14 05:09:57;;;;;;;;;7.50;7.00;;;;;13.69;68.36;101408.13;5087930;27;45294;-63
2021/11/14 05:12:22;;;;;;;;;8.50;8.00;;;;;13.70;68.52;101400.97;5101930;27;45406;-63
2021/11/14 05:14:48;;;;;;;;;7.00;7.00;;;;;13.73;68.37;101410.69;5100407;27;46041;-63
2021/11/14 05:17:13;;;;;;;;;7.00;7.00;;;;;13.71;68.44;101400.91;5102004;27;45296;-63
2021/11/14 05:19:38;;;;;;;;;9.25;7.75;;;;;13.74;68.18;101412.47;5101956;27;45243;-63
2021/11/14 05:22:04;;;;;;;;;7.50;7.50;;;;;13.75;68.20;101400.78;5101809;27;45228;-63
2021/11/14 05:24:29;;;;;;;;;6.25;4.75;;;;;13.75;68.27;101395.41;5101506;27;45371;-63
2021/11/14 05:26:56;;;;;;;;;9.25;9.25;;;;;13.71;68.38;101397.34;5101748;27;45383;-63
2021/11/14 05:29:21;;;;;;;;;8.00;7.00;;;;;13.71;68.48;101408.06;5100543;27;45447;-63
2021/11/14 05:31:46;;;;;;;;;9.75;8.25;;;;;13.71;68.58;101400.91;5101785;27;45532;-63
2021/11/14 05:34:12;;;;;;;;;8.50;8.00;;;;;13.70;68.58;101399.16;5101560;27;46210;-63
2021/11/14 05:36:38;;;;;;;;;6.25;6.25;;;;;13.65;68.50;101384.16;5100056;27;45415;-63
2021/11/14 05:39:03;;;;;;;;;9.50;8.50;;;;;13.70;68.10;101388.41;5101491;27;45163;-63
2021/11/14 05:41:29;;;;;;;;;13.75;10.00;;;;;13.72;68.72;101396.41;5101145;27;45472;-63
2021/11/14 05:43:54;;;;;;;;;7.25;7.25;;;;;13.71;68.81;101390.19;5101373;27;45239;-63
2021/11/14 05:46:20;;;;;;;;;7.00;7.00;;;;;13.75;68.74;101406.16;5101668;27;45406;-63
2021/11/14 05:48:46;;;;;;;;;9.75;7.50;;;;;13.75;68.86;101404.38;5098200;27;45301;-63
2021/11/14 05:51:11;;;;;;;;;6.75;6.25;;;;;13.75;68.69;101406.16;5090991;27;45499;-63
2021/11/14 05:53:36;;;;;;;;;10.00;8.50;;;;;13.74;68.75;101404.41;5101190;27;45983;-63
2021/11/14 05:56:03;;;;;;;;;5.75;5.00;;;;;13.76;68.42;101407.91;5101331;27;45378;-63
2021/11/14 06:06:00;;;;;;;;;9.00;8.00;;;;;13.74;68.39;101415.16;5100736;27;45364;-63
2021/11/14 06:08:25;;;;;;;;;7.00;7.00;;;;;13.70;68.74;101415.25;5099755;27;45391;-63
2021/11/14 06:10:53;;;;;;;;;10.50;8.00;;;;;13.74;68.57;101416.00;5101177;27;45345;-63
2021/11/14 06:13:24;;;;;;;;;8.00;7.75;;;;;13.77;68.66;101420.41;5100697;27;46070;-63
2021/11/14 06:15:50;;;;;;;;;7.50;6.50;;;;;13.76;68.76;101421.31;5101096;27;45440;-63
2021/11/14 06:18:15;;;;;;;;;8.75;7.00;;;;;13.76;68.76;101416.81;5100901;27;45260;-63
2021/11/14 06:20:43;;;;;;;;;7.00;7.00;;;;;13.74;68.95;101417.81;5101128;27;45222;-63
2021/11/14 06:23:09;;;;;;;;;10.75;10.00;;;;;13.77;69.07;101431.16;5100370;27;46348;-63
2021/11/14 06:25:35;;;;;;;;;10.00;7.00;;;;;13.77;69.07;101426.63;5100837;27;45516;-63
2021/11/14 06:28:00;;;;;;;;;8.00;7.00;;;;;13.76;68.89;101432.94;5101014;27;45279;-64
2021/11/14 06:30:25;;;;;;;;;6.25;4.25;;;;;13.77;68.70;101431.16;5100855;27;45533;-64
2021/11/14 06:32:51;;;;;;;;;7.50;7.50;;;;;13.77;68.65;101433.81;5099323;27;47208;-63
2021/11/14 06:35:17;;;;;;;;;8.00;8.00;;;;;13.75;68.86;101441.03;5100409;27;45452;-63
2021/11/14 06:37:42;;;;;;;;;8.75;8.00;;;;;13.78;68.90;101444.50;5100626;27;45328;-63
2021/11/14 06:40:08;;;;;;;;;7.50;6.00;;;;;13.78;69.03;101432.88;5100179;27;45548;-64
2021/11/14 06:42:34;;;;;;;;;6.00;6.00;;;;;13.77;68.76;101441.88;5100211;27;46237;-63
2021/11/14 06:45:00;;;;;;;;;5.25;5.25;;;;;13.77;68.89;101441.88;5099110;27;45250;-64
2021/11/14 06:47:25;;;;;;;;;6.00;6.00;;;;;13.76;68.92;101440.09;5100005;27;45350;-63
2021/11/14 06:49:52;;;;;;;;;7.00;6.25;;;;;13.76;68.85;101446.34;5091714;27;45625;-64
2021/11/14 06:52:18;;;;;;;;;5.75;5.50;;;;;13.75;69.16;101452.66;5100326;27;45402;-64
2021/11/14 06:54:43;;;;;;;;;8.00;6.00;;;;;13.74;69.05;101453.56;5099842;27;45424;-63
2021/11/14 06:57:09;;;;;;;;;6.50;4.75;;;;;13.70;69.10;101452.81;5100531;27;45371;-64
2021/11/14 06:59:38;;;;;;;;;6.75;6.00;;;;;13.73;69.08;101454.50;5100368;27;45623;-64
2021/11/14 07:02:04;;;;;;;;;6.50;6.50;;;;;13.75;69.33;101454.44;5100384;27;46085;-63
2021/11/14 07:04:29;;;;;;;;;4.75;4.75;;;;;13.75;69.09;101466.06;5100201;27;45500;-64
2021/11/14 07:06:54;;;;;;;;;8.00;7.00;;;;;13.74;68.97;101475.03;5100290;27;45340;-64
2021/11/14 07:09:20;;;;;;;;;7.75;7.75;;;;;13.71;68.69;101464.41;5099843;27;45537;-64
2021/11/14 07:11:45;;;;;;;;;6.00;6.00;;;;;13.73;68.85;101470.59;5100121;27;45270;-64
2021/11/14 07:14:10;;;;;;;;;6.25;6.25;;;;;13.74;68.80;101474.16;5102306;27;45353;-64
2021/11/14 07:16:36;;;;;;;;;5.75;5.75;;;;;13.74;68.94;101476.84;5103829;27;45319;-64
2021/11/14 07:19:02;;;;;;;;;6.25;5.00;;;;;13.75;68.94;101483.97;5103355;27;45424;-64
2021/11/14 07:21:28;;;;;;;;;5.50;5.50;;;;;13.73;69.14;101480.47;5103639;27;45327;-64
2021/11/14 07:23:53;;;;;;;;;6.25;6.25;;;;;13.71;68.80;101481.41;5103239;27;45247;-64
2021/11/14 07:26:19;;;;;;;;;6.75;4.25;;;;;13.66;69.08;101485.16;5103707;27;45968;-62
2021/11/14 07:28:44;;;;;;;;;5.25;5.25;;;;;13.64;69.17;101482.53;5102200;27;45506;-62
2021/11/14 07:31:10;;;;;;;;;6.00;6.00;;;;;13.68;69.44;101485.97;5103620;27;46012;-63
2021/11/14 07:33:35;;;;;;;;;5.50;5.25;;;;;13.71;69.08;101486.78;5103395;27;45348;-63
2021/11/14 07:36:01;;;;;;;;;7.00;5.00;;;;;13.72;69.40;101490.31;5091824;27;45381;-64
2021/11/14 07:38:27;;;;;;;;;6.00;6.00;;;;;13.74;69.01;101492.97;5097088;27;45425;-65
2021/11/14 07:40:53;;;;;;;;;7.00;7.00;;;;;13.70;69.18;101493.06;5102864;27;45495;-64
2021/11/14 07:43:18;;;;;;;;;6.00;6.00;;;;;13.72;69.05;101498.38;5101548;27;45590;-64
2021/11/14 07:45:44;;;;;;;;;5.25;5.25;;;;;13.75;69.00;101500.97;5103306;27;45257;-64
2021/11/14 07:48:10;;;;;;;;;5.75;5.75;;;;;13.78;68.91;101505.31;5103041;27;45425;-64
2021/11/14 07:50:36;;;;;;;;;8.25;7.50;;;;;13.74;68.95;101507.25;5093467;27;45307;-64
2021/11/14 07:53:04;;;;;;;;;7.50;7.50;;;;;13.76;68.97;101508.06;5101222;27;45682;-64
2021/11/14 07:55:30;;;;;;;;;6.00;6.00;;;;;13.74;68.82;101517.09;5103238;27;45327;-64
2021/11/14 07:57:58;;;;;;;;;6.25;4.00;;;;;13.68;68.95;101513.69;5102986;27;45288;-64
2021/11/14 08:00:23;;;;;;;;;6.00;6.00;;;;;13.64;69.23;101516.53;5102952;27;45306;-64
2021/11/14 08:02:50;;;;;;;;;5.50;5.00;;;;;13.61;68.98;101519.31;5101777;27;45262;-64
2021/11/14 08:05:17;;;;;;;;;5.25;5.00;;;;;13.60;69.19;101522.91;5103355;27;45566;-64
2021/11/14 08:07:45;;;;;;;;;7.25;7.25;;;;;13.62;69.22;101521.94;5102584;27;45471;-64
2021/11/14 08:10:11;;;;;;;;;9.25;6.50;;;;;13.64;69.20;101522.75;5102617;27;46387;-64
2021/11/14 08:12:37;;;;;;;;;5.00;5.00;;;;;13.63;69.14;101526.38;5102417;27;45383;-64
2021/11/14 08:15:04;;;;;;;;;7.00;6.00;;;;;13.66;69.06;101533.44;5103062;27;45220;-65
2021/11/14 08:17:29;;;;;;;;;6.50;5.50;;;;;13.64;69.12;101536.16;5102375;27;45489;-65
2021/11/14 08:19:58;;;;;;;;;9.00;8.50;;;;;13.67;69.11;101537.88;5102913;27;45439;-64
2021/11/14 08:22:23;;;;;;;;;11.50;7.50;;;;;13.67;69.20;101532.53;5102416;27;45407;-63
2021/11/14 08:24:49;;;;;;;;;8.00;8.00;;;;;13.66;69.19;101526.25;5101603;27;45285;-63
2021/11/14 08:27:14;;;;;;;;;6.75;6.75;;;;;13.64;68.89;101525.44;5102622;27;45285;-63
2021/11/14 08:29:40;;;;;;;;;7.75;7.75;;;;;13.66;69.28;101528.06;5102819;27;46466;-63
2021/11/14 08:32:05;;;;;;;;;10.50;9.00;;;;;13.65;69.24;101532.56;5100123;27;45612;-63
2021/11/14 08:34:31;;;;;;;;;8.75;8.75;;;;;13.67;69.11;101528.03;5100494;27;45363;-64
2021/11/14 08:36:56;;;;;;;;;7.50;7.50;;;;;13.65;69.02;101529.88;5099624;27;45355;-64
2021/11/14 08:39:22;;;;;;;;;7.00;7.00;;;;;13.65;69.20;101534.38;5102175;27;45394;-63
2021/11/14 08:41:47;;;;;;;;;6.25;6.00;;;;;13.65;69.31;101529.03;5101797;27;45398;-63
2021/11/14 08:44:12;;;;;;;;;7.50;5.00;;;;;13.64;69.29;101527.25;5102432;27;45194;-62
2021/11/14 08:46:38;;;;;;;;;6.25;6.25;;;;;13.65;69.38;101534.38;5098972;27;46875;-63
2021/11/14 08:49:04;;;;;;;;;8.25;7.50;;;;;13.65;69.60;101537.94;5098817;27;47193;-63
2021/11/14 08:51:29;;;;;;;;;7.25;7.25;;;;;13.66;69.45;101536.13;5098157;27;45812;-63
2021/11/14 08:53:58;;;;;;;;;9.00;7.25;;;;;13.65;69.31;101545.13;5102033;27;45380;-63
2021/11/14 08:56:28;;;;;;;;;6.75;6.75;;;;;13.63;69.10;101542.47;5101706;27;45590;-63
2021/11/14 08:58:54;;;;;;;;;8.75;5.75;;;;;13.66;69.12;101538.81;5100386;27;48265;-63
2021/11/14 09:01:20;;;;;;;;;6.75;6.75;;;;;13.68;69.21;101536.94;5101714;27;45398;-63
2021/11/14 09:03:45;;;;;;;;;9.00;5.75;;;;;13.68;69.60;101534.25;5101465;27;45407;-64
2021/11/14 09:06:10;;;;;;;;;5.50;5.25;;;;;13.69;69.18;101534.22;5100785;27;45427;-64
2021/11/14 09:08:36;;;;;;;;;7.25;6.25;;;;;13.68;69.21;101532.47;5092107;27;45343;-61
2021/11/14 09:11:01;;;;;;;;;5.50;5.25;;;;;13.73;69.02;101532.31;5101767;27;45230;-62
2021/11/14 09:13:29;;;;;;;;;11.00;7.50;;;;;13.75;69.36;101530.47;5101780;27;45389;-66
2021/11/14 09:15:58;;;;;;;;;6.50;6.50;;;;;13.77;68.92;101536.66;5101647;27;45513;-65
2021/11/14 09:18:25;;;;;;;;;6.00;6.00;;;;;13.76;69.07;101542.06;5101177;27;46190;-67
2021/11/14 09:20:51;;;;;;;;;8.00;5.00;;;;;13.75;69.30;101545.66;5101510;27;45467;-61
2021/11/14 09:23:16;;;;;;;;;4.50;4.50;;;;;13.76;69.15;101547.44;5101815;27;45306;-62
2021/11/14 09:25:42;;;;;;;;;3.75;3.75;;;;;13.77;69.08;101551.88;5101607;27;45591;-64
2021/11/14 09:28:10;;;;;;;;;4.00;4.00;;;;;13.76;68.84;101551.00;5101350;27;46374;-63
2021/11/14 09:30:36;;;;;;;;;5.25;5.25;;;;;13.81;68.89;101550.84;5101384;27;46792;-63
2021/11/14 09:33:02;;;;;;;;;7.25;5.00;;;;;13.80;68.75;101549.97;5101314;27;45472;-60
2021/11/14 09:35:28;;;;;;;;;6.00;4.00;;;;;13.79;68.46;101555.38;5095844;27;45266;-65
2021/11/14 09:37:53;;;;;;;;;4.25;3.00;;;;;13.77;68.56;101558.13;5096342;27;45534;-60
2021/11/14 09:40:19;;;;;;;;;4.50;4.50;;;;;13.75;68.63;101549.25;5101666;27;45202;-60
2021/11/14 09:42:44;;;;;;;;;4.50;3.50;;;;;13.76;68.89;101547.44;5101258;27;45272;-61
2021/11/14 09:45:11;;;;;;;;;4.75;3.50;;;;;13.78;68.74;101546.47;5101539;27;45197;-64
2021/11/14 09:47:38;;;;;;;;;4.00;4.00;;;;;13.82;68.65;101558.84;5099293;27;47067;-61
2021/11/14 09:50:07;;;;;;;;;6.00;5.00;;;;;13.85;68.73;101557.88;5100450;27;45540;-60
2021/11/14 09:52:33;;;;;;;;;4.00;4.00;;;;;13.89;68.75;101555.03;5101426;27;45158;-63
2021/11/14 09:55:02;;;;;;;;;5.00;4.00;;;;;13.93;68.71;101550.44;5099391;27;45601;-60
2021/11/14 09:57:27;;;;;;;;;4.25;3.00;;;;;13.97;68.52;101554.78;5099646;27;48177;-60
2021/11/14 09:59:53;;;;;;;;;3.75;3.75;;;;;13.98;67.97;101564.59;5100983;27;45312;-62
2021/11/14 10:02:18;;;;;;;;;4.75;3.75;;;;;13.95;68.29;101562.00;5101047;27;45436;-62
2021/11/14 10:04:44;;;;;;;;;7.75;5.75;;;;;13.93;68.31;101563.84;5101030;27;45431;-60
2021/11/14 10:07:14;;;;;;;;;5.50;4.75;;;;;13.95;68.56;101563.78;5099564;27;46586;-61
2021/11/14 10:09:45;;;;;;;;;4.75;4.75;;;;;13.95;68.51;101562.00;5094800;27;45253;-60
2021/11/14 10:12:20;;;;;;;;;7.00;6.00;;;;;13.97;68.22;101559.28;5103510;27;45404;-61
2021/11/14 10:14:49;;;;;;;;;7.00;7.00;;;;;13.94;68.08;101559.38;5100399;27;45380;-61
2021/11/14 10:17:27;;;;;;;;;7.75;7.25;;;;;13.92;68.40;101563.94;5092953;27;45396;-61
2021/11/14 10:20:04;;;;;;;;;8.50;8.00;;;;;13.90;68.41;101564.84;5088208;27;45638;-61
2021/11/14 10:22:30;;;;;;;;;7.50;6.75;;;;;13.95;68.35;101564.69;5101032;27;45357;-61
2021/11/14 10:24:55;;;;;;;;;8.00;8.00;;;;;13.96;68.71;101558.38;5100812;27;45453;-61
2021/11/14 10:27:26;;;;;;;;;7.50;7.00;;;;;13.96;68.35;101553.00;5100539;27;46254;-61
2021/11/14 10:29:51;;;;;;;;;10.00;8.00;;;;;13.99;68.47;101560.97;5100722;27;46039;-61
2021/11/14 10:32:17;;;;;;;;;8.75;8.25;;;;;14.01;68.49;101564.47;5100984;27;45318;-62
2021/11/14 10:34:51;;;;;;;;;9.00;9.00;;;;;13.99;68.45;101560.97;5100843;27;45327;-62
2021/11/14 10:37:21;;;;;;;;;10.00;9.00;;;;;14.03;68.30;101564.41;5097574;27;45336;-62
2021/11/14 10:39:58;;;;;;;;;11.00;9.75;;;;;14.01;67.99;101555.53;5100532;27;45380;-61
2021/11/14 10:42:29;;;;;;;;;9.50;9.25;;;;;13.99;68.28;101554.72;5100295;27;45514;-61
2021/11/14 10:44:58;;;;;;;;;9.00;9.00;;;;;13.98;68.31;101558.34;5100580;27;45361;-61
2021/11/14 10:47:24;;;;;;;;;8.75;8.75;;;;;14.01;68.11;101564.47;5087215;27;45344;-61
2021/11/14 10:50:00;;;;;;;;;14.75;11.25;;;;;14.03;67.84;101557.25;5099577;27;45409;-61
2021/11/14 10:52:27;;;;;;;;;10.25;9.75;;;;;13.97;68.04;101559.28;5100722;27;45238;-61
2021/11/14 10:54:55;;;;;;;;;10.25;8.75;;;;;13.98;68.07;101559.22;5100163;27;45284;-61
2021/11/14 10:57:24;;;;;;;;;12.50;12.50;;;;;13.98;68.22;101558.34;5100485;27;46202;-61
2021/11/14 10:59:51;;;;;;;;;10.00;10.00;;;;;13.99;67.98;101565.47;5100020;27;45228;-61
2021/11/14 11:02:18;;;;;;;;;13.50;10.50;;;;;13.99;68.35;101560.97;5100746;27;45316;-61
2021/11/14 11:04:45;;;;;;;;;13.25;11.25;;;;;14.02;68.10;101566.22;5100214;27;45396;-61
2021/11/14 11:07:10;;;;;;;;;13.00;9.75;;;;;14.04;68.12;101567.06;5098805;27;45499;-61
2021/11/14 11:09:36;;;;;;;;;13.25;12.00;;;;;14.04;68.06;101569.75;5093458;27;45384;-61
2021/11/14 11:12:03;;;;;;;;;12.75;11.75;;;;;14.04;67.84;101569.75;5100207;27;45397;-61
2021/11/14 11:14:30;;;;;;;;;11.75;11.25;;;;;14.05;68.16;101566.13;5100437;27;45298;-61
2021/11/14 11:16:59;;;;;;;;;11.25;9.75;;;;;14.09;67.90;101572.28;5098541;27;47236;-61
2021/11/14 11:19:25;;;;;;;;;13.50;13.00;;;;;14.09;68.28;101562.41;5099871;27;45257;-60
2021/11/14 11:21:51;;;;;;;;;10.00;10.00;;;;;14.07;68.17;101560.72;5099770;27;45302;-61
2021/11/14 11:24:21;;;;;;;;;13.00;13.00;;;;;14.12;68.14;101565.94;5100075;27;45279;-61
2021/11/14 11:27:06;;;;;;;;;13.75;13.75;;;;;14.11;67.75;101567.72;5099983;27;45604;-61